ENFL/FRO METAR and TAF weather

Enter ICAO airport designator
Station Type Date Time Source
ENFL METAR 2019/12/11 15:20 UTC NOAA

ENFL 111520Z 19032KT 9999 -SHRA FEW020CB SCT030TCU BKN045 08/03 Q0982


Station Type Date Time Source
ENFL Decoded METAR 2019/12/11 15:20 UTC NOAA

Floro, Norway (ENFL) 61-35N 005-02E 9M
Dec 11, 2019 - 10:20 AM EST / 2019.12.11 1520 UTC
Wind: from the S (190 degrees) at 37 MPH (32 KT):0
Visibility: greater than 7 mile(s):0
Sky conditions: mostly cloudy
Weather: light rain showers; Cumulonimbus clouds, towering cumulus clouds observed
Temperature: 46 F (8 C)
Dew Point: 37 F (3 C)
Relative Humidity: 70%
Pressure (altimeter): 29.00 in. Hg (0982 hPa)
ob: ENFL 111520Z 19032KT 9999 -SHRA FEW020CB SCT030TCU BKN045 08/03 Q0982
cycle: 15

Station Type Date Time Source
ENFL TAF 2010/02/05 07:50 UTC NOAA

METAR ENFL 050750Z 16019KT 140V200 9999 FEW015 SCT030 BKN055 03/M03 Q1011

Example: see airport list